Time;durP1;ratioP1;P1;durP2;ratioP2;P2;SDS_P1;SDS_P2;PMS_P1;PMS_P2;Temp;Humidity;BMP_temperature;BMP_pressure;BME280_temperature;BME280_humidity;BME280_pressure;Samples;Min_cycle;Max_cycle;Signal;HPM_P1;HPM_P2
2022/09/30 00:00:45;;;;;;;17.77;9.82;;;6.80;90.20;;;;;;5093859;28;20072;-38
2022/09/30 00:03:10;;;;;;;18.02;11.10;;;6.80;90.30;;;;;;5094481;28;20065;-38
2022/09/30 00:05:36;;;;;;;18.88;10.75;;;6.80;90.20;;;;;;5094393;28;20531;-41
2022/09/30 00:08:01;;;;;;;22.58;12.00;;;6.80;90.20;;;;;;5094874;28;20149;-38
2022/09/30 00:10:27;;;;;;;27.15;14.23;;;6.80;90.20;;;;;;5093418;28;20020;-39
2022/09/30 00:12:54;;;;;;;22.65;13.57;;;6.70;90.20;;;;;;5094373;28;20056;-38
2022/09/30 00:15:19;;;;;;;22.65;13.07;;;6.70;90.30;;;;;;5094436;28;20441;-38
2022/09/30 00:17:45;;;;;;;21.85;13.90;;;6.60;90.30;;;;;;5094576;28;20024;-38
2022/09/30 00:20:11;;;;;;;12.35;8.52;;;6.70;90.40;;;;;;5094270;28;20016;-38
2022/09/30 00:22:36;;;;;;;16.92;10.93;;;6.70;90.40;;;;;;5094103;28;20028;-38
2022/09/30 00:25:02;;;;;;;15.50;10.10;;;6.60;90.50;;;;;;5093989;28;20074;-39
2022/09/30 00:27:28;;;;;;;19.33;11.80;;;6.70;90.50;;;;;;5093978;28;20047;-38
2022/09/30 00:29:54;;;;;;;14.05;9.90;;;6.70;90.50;;;;;;5093846;28;20043;-39
2022/09/30 00:32:19;;;;;;;17.55;9.38;;;6.70;90.40;;;;;;5093565;28;20044;-38
2022/09/30 00:34:45;;;;;;;20.17;9.02;;;6.60;90.20;;;;;;5093815;28;20016;-38
2022/09/30 00:37:14;;;;;;;14.88;9.90;;;6.50;90.20;;;;;;5092600;28;20035;-39
2022/09/30 00:39:39;;;;;;;18.85;10.90;;;6.40;90.30;;;;;;5093756;28;20052;-38
2022/09/30 00:42:10;;;;;;;15.00;9.10;;;6.30;90.30;;;;;;5093317;28;20063;-38
2022/09/30 00:44:46;;;;;;;20.65;10.40;;;6.30;90.40;;;;;;5093891;28;20410;-39
2022/09/30 00:47:29;;;;;;;20.05;11.45;;;6.30;90.60;;;;;;5093820;28;20482;-38
2022/09/30 00:50:00;;;;;;;18.02;10.75;;;6.30;90.60;;;;;;5093750;28;20401;-38
2022/09/30 00:52:26;;;;;;;18.65;11.30;;;6.30;90.70;;;;;;5094256;28;20063;-40
2022/09/30 00:54:54;;;;;;;16.60;11.50;;;6.30;90.60;;;;;;5093760;28;20525;-38
2022/09/30 00:57:20;;;;;;;14.88;10.73;;;6.30;90.60;;;;;;5092138;28;20045;-39
2022/09/30 00:59:49;;;;;;;16.17;9.68;;;6.30;90.50;;;;;;5093361;28;20029;-38
2022/09/30 01:02:15;;;;;;;15.18;9.50;;;6.30;90.50;;;;;;5093152;28;20495;-39
2022/09/30 01:04:42;;;;;;;14.70;10.30;;;6.30;90.50;;;;;;5093193;28;20039;-38
2022/09/30 01:07:11;;;;;;;16.10;9.95;;;6.30;90.50;;;;;;5093638;28;20032;-38
2022/09/30 01:09:40;;;;;;;20.17;11.70;;;6.20;90.50;;;;;;5093345;28;20169;-38
2022/09/30 01:12:13;;;;;;;14.70;9.30;;;6.20;90.50;;;;;;5093171;28;20064;-38
2022/09/30 01:14:45;;;;;;;17.00;10.65;;;6.20;90.50;;;;;;5093605;28;20110;-38
2022/09/30 01:17:27;;;;;;;17.27;11.35;;;6.20;90.60;;;;;;5093240;28;20024;-39
2022/09/30 01:20:04;;;;;;;15.95;9.45;;;6.20;90.50;;;;;;5092951;28;20035;-39
2022/09/30 01:22:45;;;;;;;15.82;10.20;;;6.30;90.50;;;;;;5093283;28;20024;-38
2022/09/30 01:25:36;;;;;;;18.50;10.82;;;6.20;90.50;;;;;;5093354;28;20055;-39
2022/09/30 01:28:34;;;;;;;12.10;9.07;;;6.20;90.50;;;;;;5091591;28;20024;-40
2022/09/30 01:31:28;;;;;;;14.10;8.98;;;6.20;90.50;;;;;;5092700;28;20058;-38
2022/09/30 01:34:32;;;;;;;17.52;8.05;;;6.30;90.50;;;;;;5093205;28;20027;-39
2022/09/30 01:37:25;;;;;;;12.77;8.27;;;6.30;90.50;;;;;;5093054;28;20021;-39
2022/09/30 01:40:06;;;;;;;12.38;7.88;;;6.30;90.40;;;;;;5093292;28;20468;-39
2022/09/30 01:42:54;;;;;;;13.80;8.20;;;6.20;90.30;;;;;;5093074;28;20031;-39
2022/09/30 01:45:34;;;;;;;13.10;8.27;;;6.20;90.30;;;;;;5093389;28;20086;-38
2022/09/30 01:48:06;;;;;;;11.18;7.82;;;6.20;90.30;;;;;;5093323;28;20036;-39
2022/09/30 01:50:41;;;;;;;14.32;7.88;;;6.10;90.40;;;;;;5093236;28;20105;-40
2022/09/30 01:53:11;;;;;;;12.00;7.95;;;6.10;90.40;;;;;;5093923;28;20035;-40
2022/09/30 01:55:59;;;;;;;20.25;10.63;;;6.10;90.60;;;;;;5097061;28;20023;-38
2022/09/30 01:58:46;;;;;;;16.67;10.23;;;6.10;90.70;;;;;;5084328;28;20062;-39
2022/09/30 02:01:33;;;;;;;12.35;8.90;;;6.10;90.80;;;;;;5096766;28;20024;-39
2022/09/30 02:04:06;;;;;;;13.57;8.75;;;6.00;90.80;;;;;;5096351;28;20025;-39
2022/09/30 02:06:36;;;;;;;14.70;9.48;;;6.10;91.00;;;;;;5095286;28;20059;-39
2022/09/30 02:09:21;;;;;;;15.27;9.68;;;6.10;91.00;;;;;;5096624;28;20016;-39
2022/09/30 02:11:47;;;;;;;13.23;9.15;;;6.20;91.00;;;;;;5096639;28;20107;-48
2022/09/30 02:14:25;;;;;;;17.70;11.65;;;6.10;90.90;;;;;;5096223;28;20471;-48
2022/09/30 02:17:04;;;;;;;14.85;8.95;;;6.10;90.90;;;;;;5096190;28;20054;-48
2022/09/30 02:19:42;;;;;;;17.35;8.98;;;6.10;90.90;;;;;;5096391;28;20031;-46
2022/09/30 02:22:16;;;;;;;14.57;8.80;;;6.10;90.90;;;;;;5096087;28;20365;-53
2022/09/30 02:24:44;;;;;;;17.00;9.90;;;6.00;90.80;;;;;;5096085;28;20103;-47
2022/09/30 02:27:17;;;;;;;15.85;8.60;;;6.00;90.70;;;;;;5096179;28;20440;-46
2022/09/30 02:29:49;;;;;;;11.73;8.23;;;6.00;90.80;;;;;;5096232;28;20103;-47
2022/09/30 02:32:19;;;;;;;12.43;8.48;;;6.00;90.90;;;;;;5095712;28;20047;-46
2022/09/30 02:34:51;;;;;;;17.23;9.00;;;6.00;90.70;;;;;;5095853;28;20028;-47
2022/09/30 02:37:23;;;;;;;18.33;9.15;;;6.10;90.80;;;;;;5094830;28;20115;-47
2022/09/30 02:39:57;;;;;;;18.98;9.68;;;6.00;90.60;;;;;;5095959;28;20023;-48
2022/09/30 02:42:29;;;;;;;13.55;8.32;;;6.00;90.60;;;;;;5094718;28;20115;-47
2022/09/30 02:45:03;;;;;;;18.65;10.15;;;5.90;90.60;;;;;;5096014;28;20154;-47
2022/09/30 02:47:33;;;;;;;16.17;9.40;;;5.90;90.60;;;;;;5094405;28;20028;-47
2022/09/30 02:50:06;;;;;;;12.77;9.10;;;5.90;90.60;;;;;;5095786;28;20032;-47
2022/09/30 02:52:54;;;;;;;14.07;9.20;;;5.80;90.60;;;;;;5078259;28;20311;-47
2022/09/30 02:55:28;;;;;;;16.27;9.23;;;5.80;90.70;;;;;;5055807;28;20070;-47
2022/09/30 02:58:13;;;;;;;15.73;9.40;;;5.80;90.70;;;;;;5095787;28;20070;-46
2022/09/30 03:00:39;;;;;;;20.85;10.23;;;5.80;90.60;;;;;;5095441;28;20016;-46
2022/09/30 03:03:29;;;;;;;15.95;11.02;;;5.80;90.70;;;;;;5095507;28;20015;-49
2022/09/30 03:05:55;;;;;;;16.88;10.20;;;5.80;90.40;;;;;;5093252;28;20060;-47
2022/09/30 03:08:20;;;;;;;16.27;9.82;;;5.80;90.50;;;;;;5095507;28;20109;-46
2022/09/30 03:10:51;;;;;;;17.67;9.52;;;5.70;90.60;;;;;;5095947;28;20103;-46
2022/09/30 03:13:19;;;;;;;;;;;5.70;90.50;;;;;;5095873;28;20028;-46
2022/09/30 03:16:12;;;;;;;12.95;9.20;;;5.70;90.40;;;;;;5095325;28;20431;-46
2022/09/30 03:18:44;;;;;;;16.60;9.27;;;5.60;90.40;;;;;;5095111;28;20031;-45
2022/09/30 03:21:27;;;;;;;18.23;10.10;;;5.60;90.50;;;;;;5095095;28;20149;-46
2022/09/30 03:23:58;;;;;;;15.30;9.45;;;5.70;90.60;;;;;;5095794;28;20030;-46
2022/09/30 03:26:55;;;;;;;17.58;10.20;;;5.70;90.60;;;;;;5095308;28;20099;-47
2022/09/30 03:29:24;;;;;;;19.70;9.50;;;5.70;90.60;;;;;;5095406;28;20027;-46
2022/09/30 03:32:08;;;;;;;15.52;8.82;;;5.60;90.50;;;;;;5094783;28;20047;-46
2022/09/30 03:34:48;;;;;;;14.13;8.88;;;5.60;90.50;;;;;;5094476;28;20069;-47
2022/09/30 03:37:24;;;;;;;;;;;5.60;90.50;;;;;;5095516;28;20056;-47
2022/09/30 03:40:02;;;;;;;12.00;7.50;;;5.50;90.60;;;;;;5095120;28;19904;-47
2022/09/30 03:43:08;;;;;;;14.63;8.77;;;5.50;90.60;;;;;;5094904;28;20024;-47
2022/09/30 03:46:00;;;;;;;14.30;9.27;;;5.50;90.70;;;;;;5091815;28;20492;-47
2022/09/30 03:48:28;;;;;;;13.05;8.35;;;5.50;90.60;;;;;;5095085;28;20024;-47
2022/09/30 03:50:55;;;;;;;14.07;8.43;;;5.50;90.70;;;;;;5094734;28;20020;-46
2022/09/30 03:53:21;;;;;;;14.23;8.65;;;5.50;90.60;;;;;;5094504;28;20024;-46
2022/09/30 03:55:51;;;;;;;15.52;8.85;;;5.50;90.60;;;;;;5094826;28;20380;-47
2022/09/30 03:58:18;;;;;;;12.52;8.50;;;5.50;90.60;;;;;;5094728;28;20468;-47
2022/09/30 04:00:49;;;;;;;14.15;7.72;;;5.50;90.70;;;;;;5094715;28;20384;-46
2022/09/30 04:03:16;;;;;;;12.68;8.30;;;5.50;90.70;;;;;;5093162;28;20031;-47
2022/09/30 04:05:42;;;;;;;18.70;9.85;;;5.60;90.70;;;;;;5094443;28;20047;-49
2022/09/30 04:08:08;;;;;;;12.32;7.97;;;5.60;90.80;;;;;;5094672;28;20052;-47
2022/09/30 04:10:34;;;;;;;9.88;6.80;;;5.60;90.50;;;;;;5094540;28;20491;-47
2022/09/30 04:13:00;;;;;;;20.10;8.82;;;5.60;90.50;;;;;;5094223;28;20103;-46
2022/09/30 04:15:26;;;;;;;14.35;8.75;;;5.60;90.30;;;;;;5093701;28;20066;-47
2022/09/30 04:17:52;;;;;;;11.55;8.75;;;5.40;90.20;;;;;;5093962;28;20476;-47
2022/09/30 04:20:18;;;;;;;15.02;8.13;;;5.40;90.30;;;;;;5094115;28;20098;-46
2022/09/30 04:22:43;;;;;;;12.75;8.25;;;5.40;90.40;;;;;;5092641;28;20024;-46
2022/09/30 04:25:09;;;;;;;13.48;8.50;;;5.40;90.50;;;;;;5092738;28;20024;-47
2022/09/30 04:27:34;;;;;;;12.60;8.82;;;5.40;90.50;;;;;;5094232;28;20059;-47
2022/09/30 04:30:00;;;;;;;14.45;8.88;;;5.40;90.50;;;;;;5093917;28;20119;-46
2022/09/30 04:32:27;;;;;;;13.60;8.55;;;5.40;90.50;;;;;;5093709;28;20079;-49
2022/09/30 04:34:53;;;;;;;12.90;6.93;;;5.30;90.50;;;;;;5093854;28;20016;-47
2022/09/30 04:37:20;;;;;;;13.43;8.73;;;5.30;90.60;;;;;;5093824;28;20421;-47
2022/09/30 04:39:45;;;;;;;17.95;9.20;;;5.30;90.60;;;;;;5094011;28;20047;-46
2022/09/30 04:42:11;;;;;;;15.63;8.73;;;5.30;90.60;;;;;;5093973;28;20032;-48
2022/09/30 04:44:37;;;;;;;18.17;10.20;;;5.30;90.50;;;;;;5093629;28;20043;-46
2022/09/30 04:47:03;;;;;;;12.45;8.00;;;5.30;90.40;;;;;;5092438;28;20527;-46
2022/09/30 04:49:29;;;;;;;14.23;10.48;;;5.30;90.50;;;;;;5094037;28;20100;-47
2022/09/30 04:51:55;;;;;;;12.40;8.75;;;5.30;90.60;;;;;;5093484;28;20024;-47
2022/09/30 04:54:21;;;;;;;15.68;9.10;;;5.30;90.50;;;;;;5093417;28;20030;-47
2022/09/30 04:56:46;;;;;;;13.70;8.85;;;5.20;90.30;;;;;;5093453;28;20028;-47
2022/09/30 04:59:12;;;;;;;12.90;7.88;;;5.30;90.40;;;;;;5093486;28;20095;-46
2022/09/30 05:01:39;;;;;;;16.35;10.65;;;5.20;90.40;;;;;;5091897;28;20111;-46
2022/09/30 05:04:04;;;;;;;12.75;7.70;;;5.20;90.60;;;;;;5093379;28;20031;-47
2022/09/30 05:06:30;;;;;;;14.60;9.25;;;5.20;90.70;;;;;;5093462;28;20028;-46
2022/09/30 05:08:56;;;;;;;13.63;9.05;;;5.20;90.70;;;;;;5093371;28;20147;-46
2022/09/30 05:11:21;;;;;;;17.92;9.77;;;5.20;90.80;;;;;;5093501;28;20110;-47
2022/09/30 05:13:48;;;;;;;12.52;8.52;;;5.30;90.80;;;;;;5092989;28;20046;-46
2022/09/30 17:28:55;;;;;;;5.85;2.45;;;14.10;63.10;;;;;;5131833;27;20407;-48
2022/09/30 17:31:21;;;;;;;4.53;2.58;;;14.00;63.50;;;;;;5131709;28;20371;-50
2022/09/30 17:33:47;;;;;;;3.65;2.15;;;14.10;63.50;;;;;;5113301;28;20062;-47
2022/09/30 17:36:13;;;;;;;2.58;1.35;;;14.10;63.10;;;;;;5112612;28;20054;-48
2022/09/30 17:38:39;;;;;;;8.13;3.17;;;14.20;63.00;;;;;;5131138;28;20020;-49
2022/09/30 17:43:50;;;;;;;4.97;1.92;;;14.20;63.10;;;;;;5110852;28;20490;-47
2022/09/30 17:46:20;;;;;;;3.58;1.98;;;14.10;63.20;;;;;;5108917;28;20028;-49
2022/09/30 17:48:46;;;;;;;3.87;1.80;;;14.10;63.50;;;;;;5110177;28;20478;-48
2022/09/30 17:51:13;;;;;;;7.28;2.17;;;14.00;63.80;;;;;;5110179;28;20019;-48
2022/09/30 17:53:39;;;;;;;8.30;3.90;;;13.90;64.30;;;;;;5110066;28;20061;-49
2022/09/30 17:56:12;;;;;;;3.78;2.22;;;13.90;64.60;;;;;;5110083;28;20032;-49
2022/09/30 17:58:38;;;;;;;6.47;2.30;;;13.80;64.90;;;;;;5108902;28;20051;-51
2022/09/30 18:01:08;;;;;;;4.15;2.20;;;13.80;65.20;;;;;;5110035;28;20028;-50
2022/09/30 18:03:35;;;;;;;2.55;1.70;;;13.80;65.40;;;;;;5110515;28;20063;-48
2022/09/30 18:06:01;;;;;;;2.97;2.38;;;13.70;65.80;;;;;;5109658;28;20039;-49
2022/09/30 18:08:29;;;;;;;2.55;1.85;;;13.60;66.20;;;;;;5109592;28;20127;-49
2022/09/30 18:10:56;;;;;;;4.05;1.80;;;13.50;66.50;;;;;;5109536;28;20081;-48
2022/09/30 18:13:23;;;;;;;3.75;2.30;;;13.50;66.70;;;;;;5109774;28;20020;-47
2022/09/30 18:15:48;;;;;;;7.68;3.78;;;13.40;67.00;;;;;;5109588;28;20024;-51
2022/09/30 18:18:15;;;;;;;7.38;3.35;;;13.40;67.30;;;;;;5109732;28;20119;-50
2022/09/30 18:20:48;;;;;;;4.45;2.13;;;13.30;67.60;;;;;;5109829;28;20024;-48
2022/09/30 18:23:17;;;;;;;4.90;2.25;;;13.30;67.80;;;;;;5109533;28;20101;-47
2022/09/30 18:25:44;;;;;;;4.47;1.88;;;13.30;68.10;;;;;;5108371;28;20066;-47
2022/09/30 18:28:11;;;;;;;2.92;2.03;;;13.20;68.50;;;;;;5108259;28;20048;-52
2022/09/30 18:30:39;;;;;;;3.03;1.98;;;13.10;68.80;;;;;;5109661;28;20396;-47
2022/09/30 18:33:06;;;;;;;5.18;2.40;;;13.10;69.10;;;;;;5108059;28;20047;-49
2022/09/30 18:35:34;;;;;;;3.47;2.40;;;13.10;69.20;;;;;;5108030;28;20118;-49
2022/09/30 18:38:00;;;;;;;2.47;1.90;;;13.10;69.30;;;;;;5109093;28;20435;-46
2022/09/30 18:40:28;;;;;;;2.83;2.08;;;13.10;69.40;;;;;;5095072;28;20032;-48
2022/09/30 18:42:57;;;;;;;4.47;2.50;;;13.10;69.40;;;;;;5095578;28;20035;-47
2022/09/30 18:45:26;;;;;;;5.88;2.80;;;13.10;69.70;;;;;;5095835;28;20464;-48
2022/09/30 18:47:57;;;;;;;4.10;2.80;;;13.10;69.70;;;;;;5095696;28;20019;-50
2022/09/30 18:50:24;;;;;;;3.78;2.88;;;13.00;70.00;;;;;;5095687;28;20031;-47
2022/09/30 18:52:52;;;;;;;3.60;3.00;;;13.00;70.20;;;;;;5096721;28;20398;-47
2022/09/30 18:55:19;;;;;;;4.57;3.30;;;13.10;70.40;;;;;;5095468;28;20106;-48
2022/09/30 18:57:49;;;;;;;7.78;5.93;;;13.10;70.60;;;;;;5095546;28;20387;-48
2022/09/30 19:00:15;;;;;;;9.27;5.85;;;13.10;70.50;;;;;;5093963;28;20048;-50
2022/09/30 19:02:45;;;;;;;17.80;6.90;;;13.10;70.40;;;;;;5076863;28;20134;-47
2022/09/30 19:05:13;;;;;;;6.38;3.85;;;13.10;70.20;;;;;;5095296;28;20115;-48
2022/09/30 19:07:39;;;;;;;3.78;3.22;;;13.00;70.70;;;;;;5095149;28;20023;-47
2022/09/30 19:10:09;;;;;;;4.82;3.15;;;13.00;70.90;;;;;;5095316;28;20426;-47
2022/09/30 19:12:36;;;;;;;4.13;2.72;;;13.00;70.60;;;;;;5095514;28;20391;-48
2022/09/30 19:15:03;;;;;;;6.18;4.28;;;12.90;71.00;;;;;;5094012;28;20032;-46
2022/09/30 19:17:30;;;;;;;6.43;4.10;;;12.80;71.50;;;;;;5076993;28;20074;-49
2022/09/30 19:19:59;;;;;;;3.85;2.40;;;12.70;71.80;;;;;;5095274;28;20464;-47
2022/09/30 19:22:29;;;;;;;5.70;2.78;;;12.60;72.10;;;;;;5095002;28;20490;-46
2022/09/30 19:24:55;;;;;;;5.07;3.42;;;12.50;72.60;;;;;;5094016;28;20020;-47
2022/09/30 19:27:23;;;;;;;6.72;3.47;;;12.40;73.00;;;;;;5094702;28;20047;-46
2022/09/30 19:29:50;;;;;;;5.45;4.25;;;12.40;73.60;;;;;;5094972;28;20099;-48
2022/09/30 19:32:17;;;;;;;9.80;4.47;;;12.30;74.00;;;;;;5094511;28;20028;-46
2022/09/30 19:34:45;;;;;;;4.95;3.35;;;12.30;73.90;;;;;;5094879;28;20055;-49
2022/09/30 19:37:11;;;;;;;8.40;3.30;;;12.30;74.00;;;;;;5095363;28;20028;-47
2022/09/30 19:39:36;;;;;;;4.97;3.10;;;12.30;74.30;;;;;;5094702;28;20103;-46
2022/09/30 19:42:02;;;;;;;8.40;3.70;;;12.20;74.30;;;;;;5094674;28;20050;-48
2022/09/30 19:44:30;;;;;;;5.78;2.90;;;12.10;74.70;;;;;;5094422;28;20518;-51
2022/09/30 19:46:56;;;;;;;9.48;3.50;;;12.10;74.70;;;;;;5094266;28;20043;-47
2022/09/30 19:49:22;;;;;;;10.95;3.00;;;12.10;74.80;;;;;;5093978;28;20024;-47
2022/09/30 19:51:51;;;;;;;4.97;3.60;;;12.10;74.80;;;;;;5093447;28;20031;-47
2022/09/30 19:54:20;;;;;;;5.85;3.72;;;12.10;74.70;;;;;;5094962;28;20379;-47
2022/09/30 19:56:46;;;;;;;9.00;4.30;;;12.00;74.90;;;;;;5094322;28;20025;-46
2022/09/30 19:59:11;;;;;;;10.13;3.30;;;11.90;75.10;;;;;;5094446;28;20056;-47
2022/09/30 20:01:37;;;;;;;4.97;3.83;;;11.90;75.30;;;;;;5094096;28;20152;-46
2022/09/30 20:04:03;;;;;;;4.15;3.13;;;11.90;75.50;;;;;;5093878;28;20028;-48
2022/09/30 20:06:30;;;;;;;7.45;4.03;;;11.90;75.50;;;;;;5094668;28;20085;-47
2022/09/30 20:08:59;;;;;;;10.27;4.20;;;11.90;75.50;;;;;;5094543;28;20046;-46
2022/09/30 20:11:26;;;;;;;9.05;3.95;;;11.90;75.50;;;;;;5093038;28;20020;-48
2022/09/30 20:16:40;;;;;;;8.20;3.83;;;11.90;75.50;;;;;;5094726;28;20486;-46
2022/09/30 20:19:06;;;;;;;6.85;3.70;;;11.90;75.30;;;;;;5092997;28;20061;-48
2022/09/30 20:21:32;;;;;;;5.93;4.10;;;11.80;75.60;;;;;;5094075;28;20040;-47
2022/09/30 20:23:58;;;;;;;7.47;3.92;;;11.80;75.80;;;;;;5094304;28;20027;-47
2022/09/30 20:26:24;;;;;;;7.43;4.03;;;11.80;76.20;;;;;;5094558;28;20196;-47
2022/09/30 20:28:58;;;;;;;6.43;4.40;;;11.70;76.50;;;;;;5093923;28;20094;-47
2022/09/30 20:31:24;;;;;;;6.32;3.63;;;11.80;76.30;;;;;;5093237;28;20024;-49
2022/09/30 20:33:55;;;;;;;10.25;4.00;;;11.70;76.80;;;;;;5094083;28;20024;-47
2022/09/30 20:36:21;;;;;;;;;;;11.80;76.50;;;;;;5093875;28;20047;-46
2022/09/30 20:38:57;;;;;;;8.70;4.22;;;11.70;76.60;;;;;;5093731;28;19931;-46
2022/09/30 20:41:22;;;;;;;7.13;3.88;;;11.70;76.80;;;;;;5094071;28;20456;-48
2022/09/30 20:43:51;;;;;;;7.10;3.90;;;11.80;76.80;;;;;;5093614;28;20024;-48
2022/09/30 20:46:22;;;;;;;13.02;5.07;;;11.70;77.00;;;;;;5093592;28;20049;-46
2022/09/30 20:48:48;;;;;;;4.47;4.00;;;11.80;76.80;;;;;;5093494;28;20036;-47
2022/09/30 20:51:20;;;;;;;9.93;5.93;;;11.80;76.50;;;;;;5093753;28;20096;-47
2022/09/30 20:53:50;;;;;;;5.32;3.80;;;11.80;76.60;;;;;;5093620;28;20043;-46
2022/09/30 20:56:18;;;;;;;8.98;3.70;;;11.80;76.40;;;;;;5093363;28;20055;-47
2022/09/30 20:58:45;;;;;;;5.82;3.35;;;11.90;76.20;;;;;;5075175;28;20036;-47
2022/09/30 21:01:13;;;;;;;4.78;3.42;;;11.90;75.80;;;;;;5093300;28;20025;-46
2022/09/30 21:03:40;;;;;;;5.28;3.33;;;11.90;75.80;;;;;;5093248;28;20028;-47
2022/09/30 21:06:11;;;;;;;7.13;4.30;;;12.00;75.40;;;;;;5091769;28;20395;-46
2022/09/30 21:08:37;;;;;;;4.60;3.22;;;12.10;75.00;;;;;;5093398;28;20026;-47
2022/09/30 21:11:10;;;;;;;6.57;4.80;;;12.10;74.70;;;;;;5092078;28;20050;-48
2022/09/30 21:13:40;;;;;;;6.60;4.40;;;12.20;74.40;;;;;;5093025;28;20050;-46
2022/09/30 21:16:07;;;;;;;4.97;3.60;;;12.20;74.00;;;;;;5093144;28;20020;-48
2022/09/30 21:18:33;;;;;;;4.03;2.78;;;12.30;73.30;;;;;;5092831;28;20040;-47
2022/09/30 21:21:00;;;;;;;6.57;2.50;;;12.30;72.80;;;;;;5093186;28;20020;-50
2022/09/30 21:23:28;;;;;;;3.65;2.35;;;12.40;72.10;;;;;;5093246;28;20027;-47
2022/09/30 21:25:58;;;;;;;2.75;1.85;;;12.50;71.30;;;;;;5093117;28;20032;-48
2022/09/30 21:28:24;;;;;;;4.15;2.45;;;12.50;71.20;;;;;;5092691;28;20460;-48
2022/09/30 21:30:50;;;;;;;3.97;1.85;;;12.50;71.00;;;;;;5092870;28;20055;-48
2022/09/30 21:33:17;;;;;;;3.97;2.45;;;12.50;71.00;;;;;;5074884;28;20060;-47
2022/09/30 21:35:43;;;;;;;3.85;1.85;;;12.60;70.70;;;;;;5093075;28;20081;-49
2022/09/30 21:38:08;;;;;;;2.22;1.80;;;12.60;70.60;;;;;;5092624;28;20361;-47
2022/09/30 21:40:34;;;;;;;2.92;2.30;;;12.60;70.60;;;;;;5092543;28;20089;-46
2022/09/30 21:43:00;;;;;;;4.68;2.65;;;12.60;70.80;;;;;;5092658;28;20093;-46
2022/09/30 21:45:26;;;;;;;3.13;2.20;;;12.60;70.60;;;;;;5092676;28;20077;-48
2022/09/30 21:48:00;;;;;;;5.10;2.58;;;12.60;70.30;;;;;;5092955;28;20043;-48
2022/09/30 21:50:26;;;;;;;6.32;2.63;;;12.70;70.20;;;;;;5092585;28;20028;-49
2022/09/30 21:52:52;;;;;;;3.40;2.38;;;12.70;70.20;;;;;;5092744;28;20016;-48
2022/09/30 21:55:17;;;;;;;4.90;2.58;;;12.70;70.30;;;;;;5092527;28;20380;-47
2022/09/30 21:57:44;;;;;;;4.75;2.60;;;12.70;70.30;;;;;;5092717;28;20028;-47
2022/09/30 22:00:11;;;;;;;4.78;2.58;;;12.70;70.30;;;;;;5092703;28;20024;-50
2022/09/30 22:02:36;;;;;;;3.25;2.08;;;12.70;70.30;;;;;;5092396;28;20146;-47
2022/09/30 22:05:03;;;;;;;3.58;2.10;;;12.80;70.10;;;;;;5092569;28;20024;-50
2022/09/30 22:07:31;;;;;;;2.45;2.17;;;12.80;70.10;;;;;;5091072;28;20032;-48
2022/09/30 22:09:57;;;;;;;3.65;2.38;;;12.80;69.80;;;;;;5092714;28;20553;-48
2022/09/30 22:12:23;;;;;;;4.32;2.25;;;12.80;69.90;;;;;;5092601;28;20024;-47
2022/09/30 22:14:49;;;;;;;2.60;2.35;;;12.80;69.50;;;;;;5094979;28;20020;-47
2022/09/30 22:17:15;;;;;;;2.78;2.05;;;12.90;69.60;;;;;;5096294;28;20032;-48
2022/09/30 22:19:40;;;;;;;4.45;2.42;;;12.80;69.80;;;;;;5097155;28;20367;-47
2022/09/30 22:22:08;;;;;;;2.42;2.20;;;12.90;69.50;;;;;;5096341;28;20085;-48
2022/09/30 22:24:35;;;;;;;5.00;2.83;;;12.90;69.50;;;;;;5096736;28;20030;-47
2022/09/30 22:27:02;;;;;;;9.82;2.85;;;13.00;69.40;;;;;;5095819;28;20047;-50
2022/09/30 22:29:29;;;;;;;4.47;2.28;;;13.00;69.30;;;;;;5096154;28;20077;-46
2022/09/30 22:31:54;;;;;;;4.95;2.25;;;13.00;69.30;;;;;;5095893;28;20020;-47
2022/09/30 22:39:48;;;;;;;4.95;2.28;;;13.10;68.90;;;;;;5096321;28;20081;-47
2022/09/30 22:42:14;;;;;;;7.97;3.67;;;13.20;69.00;;;;;;5096018;28;20426;-48
2022/09/30 22:44:39;;;;;;;2.90;2.33;;;13.20;68.80;;;;;;5095743;28;20032;-47
2022/09/30 22:47:08;;;;;;;4.00;2.35;;;13.20;68.90;;;;;;5095828;28;20039;-49
2022/09/30 22:49:34;;;;;;;3.95;2.30;;;13.20;68.90;;;;;;5095766;28;20055;-48
2022/09/30 22:52:00;;;;;;;3.80;2.55;;;13.10;69.10;;;;;;5095949;28;20024;-47
2022/09/30 22:54:30;;;;;;;4.50;2.33;;;13.20;68.90;;;;;;5078124;28;20035;-47
2022/09/30 22:56:57;;;;;;;4.60;3.03;;;13.10;69.00;;;;;;5096627;28;20113;-51
2022/09/30 22:59:23;;;;;;;5.43;2.28;;;13.20;69.10;;;;;;5096399;28;20024;-48
2022/09/30 23:01:50;;;;;;;3.30;2.83;;;13.10;68.90;;;;;;5095801;28;20093;-48
2022/09/30 23:04:17;;;;;;;5.32;2.20;;;13.20;68.80;;;;;;5095339;28;20028;-47
2022/09/30 23:06:54;;;;;;;3.15;2.03;;;13.10;69.00;;;;;;5094828;28;20043;-47
2022/09/30 23:09:20;;;;;;;2.95;2.00;;;13.10;68.90;;;;;;5095618;28;20028;-48
2022/09/30 23:11:47;;;;;;;4.30;2.33;;;13.20;68.70;;;;;;5095522;28;20024;-50
2022/09/30 23:14:13;;;;;;;4.70;2.22;;;13.20;68.70;;;;;;5095230;28;20024;-47
2022/09/30 23:16:39;;;;;;;2.90;2.17;;;13.30;68.50;;;;;;5095179;28;20034;-47
2022/09/30 23:19:05;;;;;;;5.63;2.75;;;13.20;68.60;;;;;;5095436;28;20024;-48
2022/09/30 23:21:31;;;;;;;5.25;2.83;;;13.20;68.60;;;;;;5095013;28;20563;-47
2022/09/30 23:23:56;;;;;;;7.03;2.75;;;13.20;68.80;;;;;;5095297;28;20077;-47
2022/09/30 23:26:24;;;;;;;6.15;2.80;;;13.20;68.70;;;;;;5095353;28;20459;-50
2022/09/30 23:28:51;;;;;;;3.92;2.50;;;13.10;69.10;;;;;;5094699;28;20073;-46
2022/09/30 23:31:17;;;;;;;4.10;3.42;;;13.10;69.10;;;;;;5076795;28;20024;-47
2022/09/30 23:33:46;;;;;;;4.15;3.20;;;13.10;69.20;;;;;;5094738;28;20020;-48
2022/09/30 23:36:14;;;;;;;8.48;3.08;;;13.20;69.10;;;;;;5093713;28;20495;-48
2022/09/30 23:38:39;;;;;;;5.40;3.05;;;13.10;69.20;;;;;;5094716;28;20020;-47
2022/09/30 23:41:05;;;;;;;3.22;2.47;;;13.10;69.20;;;;;;5094714;28;20088;-47
2022/09/30 23:43:33;;;;;;;3.00;1.95;;;13.10;69.40;;;;;;5095315;28;20035;-49
2022/09/30 23:45:59;;;;;;;3.70;2.65;;;13.10;69.40;;;;;;5094964;28;20468;-46
2022/09/30 23:48:26;;;;;;;4.18;2.25;;;13.20;69.20;;;;;;5094751;28;20024;-49
2022/09/30 23:50:52;;;;;;;5.45;3.60;;;13.20;69.20;;;;;;5094720;28;20464;-46
2022/09/30 23:53:19;;;;;;;4.43;3.08;;;13.20;68.90;;;;;;5094448;28;20103;-48
2022/09/30 23:55:54;;;;;;;3.35;2.28;;;13.20;69.00;;;;;;5094295;28;20024;-46
2022/09/30 23:58:21;;;;;;;5.07;3.10;;;13.10;69.20;;;;;;5094286;28;20046;-46
